Rome, Italy
Current Conditions -  °F | °C
As of 9:45 AM on Wednesday 26 Nov 2014 (Local Time) from LIRA Reporting Station
Light Rain Light Rain  
Wind Chill: 13°   Ceiling: 4000
Heat Index: 13°   Visibility: 3mi
Dew Point: 12°   Wind: 0mph
Humidity: 94%   Direction: NA
Pressure: 30"   Gusts: NA
Location:  41.9°N, 12.48°E
Report Text: LIRA 260845Z 00000KT 5000 -RA BR FEW010 FEW018TCU BKN040 13/12 Q1016
Loading
Personal Weather Stations






























Interactive Weather Map New forecast layout! Learn more

10-Day Weather Forecast

Advertisements
Track Severe Weather on mobile